sensor_id;sensor_type;location;lat;lon;timestamp;temperature;humidity
10129;DHT22;5104;50.720;7.044;2022-09-12T00:01:06;13.20;99.90
10129;DHT22;5104;50.720;7.044;2022-09-12T00:03:33;13.30;99.90
10129;DHT22;5104;50.720;7.044;2022-09-12T00:06:00;13.10;99.90
10129;DHT22;5104;50.720;7.044;2022-09-12T00:08:32;13.00;99.90
10129;DHT22;5104;50.720;7.044;2022-09-12T00:11:04;13.00;99.90
10129;DHT22;5104;50.720;7.044;2022-09-12T00:13:31;13.00;99.90
10129;DHT22;5104;50.720;7.044;2022-09-12T00:15:57;12.90;99.90
10129;DHT22;5104;50.720;7.044;2022-09-12T00:18:24;12.80;99.90
10129;DHT22;5104;50.720;7.044;2022-09-12T00:20:51;12.80;99.90
10129;DHT22;5104;50.720;7.044;2022-09-12T00:23:18;12.80;99.90
10129;DHT22;5104;50.720;7.044;2022-09-12T00:25:46;12.80;99.90
10129;DHT22;5104;50.720;7.044;2022-09-12T00:28:16;12.90;99.90
10129;DHT22;5104;50.720;7.044;2022-09-12T00:30:45;12.90;99.90
10129;DHT22;5104;50.720;7.044;2022-09-12T00:33:12;12.90;99.90
10129;DHT22;5104;50.720;7.044;2022-09-12T00:35:41;12.90;99.90
10129;DHT22;5104;50.720;7.044;2022-09-12T00:38:08;12.90;99.90
10129;DHT22;5104;50.720;7.044;2022-09-12T00:40:35;12.80;99.90
10129;DHT22;5104;50.720;7.044;2022-09-12T00:43:02;12.90;99.90
10129;DHT22;5104;50.720;7.044;2022-09-12T00:45:31;12.90;99.90
10129;DHT22;5104;50.720;7.044;2022-09-12T00:48:01;12.90;99.90
10129;DHT22;5104;50.720;7.044;2022-09-12T00:50:30;12.90;99.90
10129;DHT22;5104;50.720;7.044;2022-09-12T00:53:01;12.80;99.90
10129;DHT22;5104;50.720;7.044;2022-09-12T00:55:32;12.80;99.90
10129;DHT22;5104;50.720;7.044;2022-09-12T00:58:04;12.80;99.90
10129;DHT22;5104;50.720;7.044;2022-09-12T01:00:36;12.80;99.90
10129;DHT22;5104;50.720;7.044;2022-09-12T01:03:05;12.70;99.90
10129;DHT22;5104;50.720;7.044;2022-09-12T01:05:34;12.70;99.90
10129;DHT22;5104;50.720;7.044;2022-09-12T01:08:03;12.60;99.90
10129;DHT22;5104;50.720;7.044;2022-09-12T01:10:33;12.60;99.90
10129;DHT22;5104;50.720;7.044;2022-09-12T01:13:02;12.60;99.90
10129;DHT22;5104;50.720;7.044;2022-09-12T01:15:30;12.60;99.90
10129;DHT22;5104;50.720;7.044;2022-09-12T01:18:08;12.60;99.90
10129;DHT22;5104;50.720;7.044;2022-09-12T01:23:52;12.50;99.90
10129;DHT22;5104;50.720;7.044;2022-09-12T01:26:41;12.50;99.90
10129;DHT22;5104;50.720;7.044;2022-09-12T01:29:24;12.50;99.90
10129;DHT22;5104;50.720;7.044;2022-09-12T01:32:06;12.60;99.90
10129;DHT22;5104;50.720;7.044;2022-09-12T01:34:37;12.50;99.90
10129;DHT22;5104;50.720;7.044;2022-09-12T01:37:14;12.40;99.90
10129;DHT22;5104;50.720;7.044;2022-09-12T01:39:46;12.40;99.90
10129;DHT22;5104;50.720;7.044;2022-09-12T01:42:21;12.40;99.90
10129;DHT22;5104;50.720;7.044;2022-09-12T01:44:56;12.30;99.90
10129;DHT22;5104;50.720;7.044;2022-09-12T01:47:30;12.30;99.90
10129;DHT22;5104;50.720;7.044;2022-09-12T01:50:05;12.30;99.90
10129;DHT22;5104;50.720;7.044;2022-09-12T01:52:37;12.20;99.90
10129;DHT22;5104;50.720;7.044;2022-09-12T01:55:10;12.20;99.90
10129;DHT22;5104;50.720;7.044;2022-09-12T01:57:43;12.20;99.90
10129;DHT22;5104;50.720;7.044;2022-09-12T02:00:12;12.20;99.90
10129;DHT22;5104;50.720;7.044;2022-09-12T02:02:44;12.20;99.90
10129;DHT22;5104;50.720;7.044;2022-09-12T02:05:17;12.20;99.90
10129;DHT22;5104;50.720;7.044;2022-09-12T02:07:48;12.30;99.90
10129;DHT22;5104;50.720;7.044;2022-09-12T02:10:20;12.30;99.90
10129;DHT22;5104;50.720;7.044;2022-09-12T02:12:51;12.20;99.90
10129;DHT22;5104;50.720;7.044;2022-09-12T02:15:20;12.20;99.90
10129;DHT22;5104;50.720;7.044;2022-09-12T02:17:51;12.20;99.90
10129;DHT22;5104;50.720;7.044;2022-09-12T02:20:21;12.20;99.90
10129;DHT22;5104;50.720;7.044;2022-09-12T02:22:50;12.30;99.90
10129;DHT22;5104;50.720;7.044;2022-09-12T02:25:19;12.20;99.90
10129;DHT22;5104;50.720;7.044;2022-09-12T02:27:49;12.20;99.90
10129;DHT22;5104;50.720;7.044;2022-09-12T02:30:17;12.30;99.90
10129;DHT22;5104;50.720;7.044;2022-09-12T02:32:57;12.30;99.90
10129;DHT22;5104;50.720;7.044;2022-09-12T02:35:32;12.30;99.90
10129;DHT22;5104;50.720;7.044;2022-09-12T02:38:04;12.30;99.90
10129;DHT22;5104;50.720;7.044;2022-09-12T02:40:34;12.30;99.90
10129;DHT22;5104;50.720;7.044;2022-09-12T02:43:03;12.20;99.90
10129;DHT22;5104;50.720;7.044;2022-09-12T02:45:30;12.10;99.90
10129;DHT22;5104;50.720;7.044;2022-09-12T02:48:03;12.10;99.90
10129;DHT22;5104;50.720;7.044;2022-09-12T02:50:32;12.00;99.90
10129;DHT22;5104;50.720;7.044;2022-09-12T02:53:00;12.10;99.90
10129;DHT22;5104;50.720;7.044;2022-09-12T02:55:30;12.10;99.90
10129;DHT22;5104;50.720;7.044;2022-09-12T02:57:58;12.00;99.90
10129;DHT22;5104;50.720;7.044;2022-09-12T03:00:26;12.00;99.90
10129;DHT22;5104;50.720;7.044;2022-09-12T03:03:08;12.10;99.90
10129;DHT22;5104;50.720;7.044;2022-09-12T03:05:42;12.10;99.90
10129;DHT22;5104;50.720;7.044;2022-09-12T03:11:52;12.00;99.90
10129;DHT22;5104;50.720;7.044;2022-09-12T03:14:35;12.10;99.90
10129;DHT22;5104;50.720;7.044;2022-09-12T03:17:08;12.10;99.90
10129;DHT22;5104;50.720;7.044;2022-09-12T03:19:48;12.10;99.90
10129;DHT22;5104;50.720;7.044;2022-09-12T03:22:21;12.10;99.90
10129;DHT22;5104;50.720;7.044;2022-09-12T03:24:55;12.00;99.90
10129;DHT22;5104;50.720;7.044;2022-09-12T03:27:27;12.00;99.90
10129;DHT22;5104;50.720;7.044;2022-09-12T03:29:56;11.90;99.90
10129;DHT22;5104;50.720;7.044;2022-09-12T03:32:41;11.90;99.90
10129;DHT22;5104;50.720;7.044;2022-09-12T03:35:11;11.90;99.90
10129;DHT22;5104;50.720;7.044;2022-09-12T03:37:39;11.90;99.90
10129;DHT22;5104;50.720;7.044;2022-09-12T03:40:08;11.90;99.90
10129;DHT22;5104;50.720;7.044;2022-09-12T03:42:35;11.90;99.90
10129;DHT22;5104;50.720;7.044;2022-09-12T03:45:02;11.90;99.90
10129;DHT22;5104;50.720;7.044;2022-09-12T03:47:29;11.90;99.90
10129;DHT22;5104;50.720;7.044;2022-09-12T03:49:56;11.90;99.90
10129;DHT22;5104;50.720;7.044;2022-09-12T03:52:24;11.90;99.90
10129;DHT22;5104;50.720;7.044;2022-09-12T03:54:51;11.80;99.90
10129;DHT22;5104;50.720;7.044;2022-09-12T03:57:18;11.80;99.90
10129;DHT22;5104;50.720;7.044;2022-09-12T03:59:45;11.80;99.90
10129;DHT22;5104;50.720;7.044;2022-09-12T04:02:13;11.90;99.90
10129;DHT22;5104;50.720;7.044;2022-09-12T04:04:40;11.90;99.90
10129;DHT22;5104;50.720;7.044;2022-09-12T04:07:08;11.80;99.90
10129;DHT22;5104;50.720;7.044;2022-09-12T04:09:36;11.80;99.90
10129;DHT22;5104;50.720;7.044;2022-09-12T04:12:04;11.80;99.90
10129;DHT22;5104;50.720;7.044;2022-09-12T04:14:31;11.70;99.90
10129;DHT22;5104;50.720;7.044;2022-09-12T04:16:58;11.70;99.90
10129;DHT22;5104;50.720;7.044;2022-09-12T04:19:25;11.70;99.90
10129;DHT22;5104;50.720;7.044;2022-09-12T04:21:52;11.70;99.90
10129;DHT22;5104;50.720;7.044;2022-09-12T04:24:19;11.70;99.90
10129;DHT22;5104;50.720;7.044;2022-09-12T04:26:47;11.70;99.90
10129;DHT22;5104;50.720;7.044;2022-09-12T04:29:14;11.60;99.90
10129;DHT22;5104;50.720;7.044;2022-09-12T04:31:40;11.50;99.90
10129;DHT22;5104;50.720;7.044;2022-09-12T04:34:08;11.50;99.90
10129;DHT22;5104;50.720;7.044;2022-09-12T04:36:35;11.50;99.90
10129;DHT22;5104;50.720;7.044;2022-09-12T04:39:03;11.50;99.90
10129;DHT22;5104;50.720;7.044;2022-09-12T04:41:32;11.50;99.90
10129;DHT22;5104;50.720;7.044;2022-09-12T04:44:03;11.50;99.90
10129;DHT22;5104;50.720;7.044;2022-09-12T04:46:33;11.50;99.90
10129;DHT22;5104;50.720;7.044;2022-09-12T04:49:00;11.50;99.90
10129;DHT22;5104;50.720;7.044;2022-09-12T04:51:28;11.60;99.90
10129;DHT22;5104;50.720;7.044;2022-09-12T04:53:57;11.50;99.90
10129;DHT22;5104;50.720;7.044;2022-09-12T04:56:25;11.50;99.90
10129;DHT22;5104;50.720;7.044;2022-09-12T04:58:55;11.40;99.90
10129;DHT22;5104;50.720;7.044;2022-09-12T05:01:23;11.40;99.90
10129;DHT22;5104;50.720;7.044;2022-09-12T05:03:51;11.40;99.90
10129;DHT22;5104;50.720;7.044;2022-09-12T05:06:19;11.50;99.90
10129;DHT22;5104;50.720;7.044;2022-09-12T05:08:46;11.50;99.90
10129;DHT22;5104;50.720;7.044;2022-09-12T05:11:15;11.60;99.90
10129;DHT22;5104;50.720;7.044;2022-09-12T05:13:42;11.60;99.90
10129;DHT22;5104;50.720;7.044;2022-09-12T05:16:10;11.60;99.90
10129;DHT22;5104;50.720;7.044;2022-09-12T05:18:39;11.70;99.90
10129;DHT22;5104;50.720;7.044;2022-09-12T05:21:09;11.70;99.90
10129;DHT22;5104;50.720;7.044;2022-09-12T05:23:36;11.80;99.90
10129;DHT22;5104;50.720;7.044;2022-09-12T05:26:04;11.80;99.90
10129;DHT22;5104;50.720;7.044;2022-09-12T05:28:34;11.80;99.90
10129;DHT22;5104;50.720;7.044;2022-09-12T05:31:02;11.90;99.90
10129;DHT22;5104;50.720;7.044;2022-09-12T05:33:29;12.10;99.90
10129;DHT22;5104;50.720;7.044;2022-09-12T05:35:58;12.20;99.90
10129;DHT22;5104;50.720;7.044;2022-09-12T05:38:25;12.30;99.90
10129;DHT22;5104;50.720;7.044;2022-09-12T05:40:53;12.40;99.90
10129;DHT22;5104;50.720;7.044;2022-09-12T05:43:20;12.50;99.90
10129;DHT22;5104;50.720;7.044;2022-09-12T05:45:47;12.60;99.90
10129;DHT22;5104;50.720;7.044;2022-09-12T05:48:13;12.70;99.90
10129;DHT22;5104;50.720;7.044;2022-09-12T05:50:41;12.80;99.90
10129;DHT22;5104;50.720;7.044;2022-09-12T05:53:09;12.90;99.90
10129;DHT22;5104;50.720;7.044;2022-09-12T05:55:36;12.90;99.90
10129;DHT22;5104;50.720;7.044;2022-09-12T05:58:03;13.00;99.90
10129;DHT22;5104;50.720;7.044;2022-09-12T06:00:29;13.10;99.90
10129;DHT22;5104;50.720;7.044;2022-09-12T06:02:56;13.20;99.90
10129;DHT22;5104;50.720;7.044;2022-09-12T06:05:23;13.30;99.90
10129;DHT22;5104;50.720;7.044;2022-09-12T06:07:50;13.50;99.90
10129;DHT22;5104;50.720;7.044;2022-09-12T06:10:18;13.60;99.90
10129;DHT22;5104;50.720;7.044;2022-09-12T06:12:47;13.80;99.90
10129;DHT22;5104;50.720;7.044;2022-09-12T06:15:14;13.90;99.90
10129;DHT22;5104;50.720;7.044;2022-09-12T06:17:41;14.00;99.90
10129;DHT22;5104;50.720;7.044;2022-09-12T06:20:08;14.00;99.90
10129;DHT22;5104;50.720;7.044;2022-09-12T06:22:35;14.20;99.90
10129;DHT22;5104;50.720;7.044;2022-09-12T06:25:02;14.20;99.90
10129;DHT22;5104;50.720;7.044;2022-09-12T06:27:30;14.30;99.90
10129;DHT22;5104;50.720;7.044;2022-09-12T06:29:57;14.30;99.90
10129;DHT22;5104;50.720;7.044;2022-09-12T06:32:24;14.40;99.90
10129;DHT22;5104;50.720;7.044;2022-09-12T06:34:51;14.50;99.90
10129;DHT22;5104;50.720;7.044;2022-09-12T06:37:18;14.60;99.90
10129;DHT22;5104;50.720;7.044;2022-09-12T06:39:45;14.60;99.90
10129;DHT22;5104;50.720;7.044;2022-09-12T06:42:13;14.70;99.90
10129;DHT22;5104;50.720;7.044;2022-09-12T06:44:41;14.80;99.90
10129;DHT22;5104;50.720;7.044;2022-09-12T06:47:08;14.90;99.90
10129;DHT22;5104;50.720;7.044;2022-09-12T06:49:36;15.00;99.90
10129;DHT22;5104;50.720;7.044;2022-09-12T06:52:03;15.10;99.90
10129;DHT22;5104;50.720;7.044;2022-09-12T06:54:30;15.30;99.90
10129;DHT22;5104;50.720;7.044;2022-09-12T06:56:57;15.40;99.90
10129;DHT22;5104;50.720;7.044;2022-09-12T06:59:23;15.50;99.90
10129;DHT22;5104;50.720;7.044;2022-09-12T07:01:52;15.60;99.90
10129;DHT22;5104;50.720;7.044;2022-09-12T07:04:18;15.60;99.90
10129;DHT22;5104;50.720;7.044;2022-09-12T07:06:45;15.70;99.90
10129;DHT22;5104;50.720;7.044;2022-09-12T07:09:13;15.90;99.90
10129;DHT22;5104;50.720;7.044;2022-09-12T07:11:43;16.10;99.90
10129;DHT22;5104;50.720;7.044;2022-09-12T07:14:12;16.20;99.90
10129;DHT22;5104;50.720;7.044;2022-09-12T07:16:39;16.40;99.90
10129;DHT22;5104;50.720;7.044;2022-09-12T07:19:08;16.50;99.90
10129;DHT22;5104;50.720;7.044;2022-09-12T07:21:35;16.60;99.90
10129;DHT22;5104;50.720;7.044;2022-09-12T07:24:04;16.80;99.90
10129;DHT22;5104;50.720;7.044;2022-09-12T07:26:33;16.90;99.90
10129;DHT22;5104;50.720;7.044;2022-09-12T07:29:00;17.20;99.90
10129;DHT22;5104;50.720;7.044;2022-09-12T07:31:28;17.30;99.90
10129;DHT22;5104;50.720;7.044;2022-09-12T07:33:55;17.30;99.90
10129;DHT22;5104;50.720;7.044;2022-09-12T07:36:24;17.50;99.90
10129;DHT22;5104;50.720;7.044;2022-09-12T07:38:55;17.50;99.90
10129;DHT22;5104;50.720;7.044;2022-09-12T07:41:23;17.60;99.90
10129;DHT22;5104;50.720;7.044;2022-09-12T07:43:51;17.60;99.90
10129;DHT22;5104;50.720;7.044;2022-09-12T07:46:19;17.70;99.90
10129;DHT22;5104;50.720;7.044;2022-09-12T07:48:48;17.80;99.90
10129;DHT22;5104;50.720;7.044;2022-09-12T07:51:17;17.60;99.90
10129;DHT22;5104;50.720;7.044;2022-09-12T07:53:45;17.80;99.90
10129;DHT22;5104;50.720;7.044;2022-09-12T07:56:14;17.90;99.90
10129;DHT22;5104;50.720;7.044;2022-09-12T07:58:42;18.10;99.90
10129;DHT22;5104;50.720;7.044;2022-09-12T08:01:11;18.00;99.90
10129;DHT22;5104;50.720;7.044;2022-09-12T08:03:38;18.00;99.90
10129;DHT22;5104;50.720;7.044;2022-09-12T08:06:06;18.10;99.90
10129;DHT22;5104;50.720;7.044;2022-09-12T08:08:34;18.30;99.90
10129;DHT22;5104;50.720;7.044;2022-09-12T08:11:04;18.40;99.90
10129;DHT22;5104;50.720;7.044;2022-09-12T08:13:32;18.70;99.90
10129;DHT22;5104;50.720;7.044;2022-09-12T08:16:00;18.90;99.90
10129;DHT22;5104;50.720;7.044;2022-09-12T08:18:27;19.20;99.90
10129;DHT22;5104;50.720;7.044;2022-09-12T08:20:58;19.50;99.90
10129;DHT22;5104;50.720;7.044;2022-09-12T08:23:25;19.40;1.00
10129;DHT22;5104;50.720;7.044;2022-09-12T08:25:54;19.40;1.00
10129;DHT22;5104;50.720;7.044;2022-09-12T08:28:23;19.60;1.00
10129;DHT22;5104;50.720;7.044;2022-09-12T08:30:49;19.70;1.00
10129;DHT22;5104;50.720;7.044;2022-09-12T08:33:17;19.80;1.00
10129;DHT22;5104;50.720;7.044;2022-09-12T08:35:44;19.50;1.00
10129;DHT22;5104;50.720;7.044;2022-09-12T08:38:11;19.60;1.00
10129;DHT22;5104;50.720;7.044;2022-09-12T08:40:43;19.80;1.00
10129;DHT22;5104;50.720;7.044;2022-09-12T08:43:27;20.10;1.00
10129;DHT22;5104;50.720;7.044;2022-09-12T08:46:01;20.20;1.00
10129;DHT22;5104;50.720;7.044;2022-09-12T08:48:30;20.40;1.00
10129;DHT22;5104;50.720;7.044;2022-09-12T08:50:58;20.20;1.00
10129;DHT22;5104;50.720;7.044;2022-09-12T08:53:26;20.50;99.90
10129;DHT22;5104;50.720;7.044;2022-09-12T08:55:57;20.50;1.00
10129;DHT22;5104;50.720;7.044;2022-09-12T08:58:27;20.50;1.00
10129;DHT22;5104;50.720;7.044;2022-09-12T09:01:01;20.50;1.00
10129;DHT22;5104;50.720;7.044;2022-09-12T09:03:51;20.40;1.00
10129;DHT22;5104;50.720;7.044;2022-09-12T09:06:39;20.60;1.00
10129;DHT22;5104;50.720;7.044;2022-09-12T09:09:14;20.50;1.00
10129;DHT22;5104;50.720;7.044;2022-09-12T09:11:51;20.60;85.70
10129;DHT22;5104;50.720;7.044;2022-09-12T09:14:49;20.70;1.00
10129;DHT22;5104;50.720;7.044;2022-09-12T09:17:23;20.60;1.00
10129;DHT22;5104;50.720;7.044;2022-09-12T09:19:56;20.50;99.90
10129;DHT22;5104;50.720;7.044;2022-09-12T09:22:35;20.40;1.00
10129;DHT22;5104;50.720;7.044;2022-09-12T09:25:09;20.40;1.00
10129;DHT22;5104;50.720;7.044;2022-09-12T09:27:42;20.60;99.90
10129;DHT22;5104;50.720;7.044;2022-09-12T09:30:17;20.80;99.90
10129;DHT22;5104;50.720;7.044;2022-09-12T09:32:48;21.00;99.90
10129;DHT22;5104;50.720;7.044;2022-09-12T09:35:20;21.10;1.00
10129;DHT22;5104;50.720;7.044;2022-09-12T09:37:59;21.10;1.00
10129;DHT22;5104;50.720;7.044;2022-09-12T09:40:33;21.30;1.00
10129;DHT22;5104;50.720;7.044;2022-09-12T09:43:07;21.60;99.90
10129;DHT22;5104;50.720;7.044;2022-09-12T09:45:38;21.60;99.90
10129;DHT22;5104;50.720;7.044;2022-09-12T09:48:14;21.40;99.90
10129;DHT22;5104;50.720;7.044;2022-09-12T09:50:42;21.60;99.90
10129;DHT22;5104;50.720;7.044;2022-09-12T09:53:20;21.70;67.10
10129;DHT22;5104;50.720;7.044;2022-09-12T09:55:49;22.00;1.00
10129;DHT22;5104;50.720;7.044;2022-09-12T09:58:27;21.90;1.00
10129;DHT22;5104;50.720;7.044;2022-09-12T10:00:59;21.70;99.90
10129;DHT22;5104;50.720;7.044;2022-09-12T10:03:33;21.80;1.00
10129;DHT22;5104;50.720;7.044;2022-09-12T10:06:01;21.90;1.00
10129;DHT22;5104;50.720;7.044;2022-09-12T10:08:33;22.10;1.00
10129;DHT22;5104;50.720;7.044;2022-09-12T10:11:03;22.10;99.90
10129;DHT22;5104;50.720;7.044;2022-09-12T10:13:35;22.10;99.90
10129;DHT22;5104;50.720;7.044;2022-09-12T10:16:05;22.20;99.90
10129;DHT22;5104;50.720;7.044;2022-09-12T10:18:39;22.40;1.00
10129;DHT22;5104;50.720;7.044;2022-09-12T10:21:20;22.60;99.90
10129;DHT22;5104;50.720;7.044;2022-09-12T10:23:51;22.40;99.90
10129;DHT22;5104;50.720;7.044;2022-09-12T10:26:19;22.40;99.90
10129;DHT22;5104;50.720;7.044;2022-09-12T10:28:50;22.40;89.20
10129;DHT22;5104;50.720;7.044;2022-09-12T10:31:25;22.40;99.90
10129;DHT22;5104;50.720;7.044;2022-09-12T10:33:55;22.40;1.00
10129;DHT22;5104;50.720;7.044;2022-09-12T10:36:23;22.50;87.10
10129;DHT22;5104;50.720;7.044;2022-09-12T10:38:52;22.70;1.00
10129;DHT22;5104;50.720;7.044;2022-09-12T10:41:20;22.60;1.00
10129;DHT22;5104;50.720;7.044;2022-09-12T10:43:48;22.50;1.00
10129;DHT22;5104;50.720;7.044;2022-09-12T10:46:26;22.50;1.00
10129;DHT22;5104;50.720;7.044;2022-09-12T10:49:12;22.50;1.00
10129;DHT22;5104;50.720;7.044;2022-09-12T10:51:39;22.50;1.00
10129;DHT22;5104;50.720;7.044;2022-09-12T10:54:09;22.80;1.00
10129;DHT22;5104;50.720;7.044;2022-09-12T10:56:41;22.80;99.90
10129;DHT22;5104;50.720;7.044;2022-09-12T10:59:24;22.80;1.00
10129;DHT22;5104;50.720;7.044;2022-09-12T11:01:58;23.00;99.90
10129;DHT22;5104;50.720;7.044;2022-09-12T11:04:32;22.90;99.90
10129;DHT22;5104;50.720;7.044;2022-09-12T11:07:13;22.80;1.00
10129;DHT22;5104;50.720;7.044;2022-09-12T11:09:50;22.90;1.00
10129;DHT22;5104;50.720;7.044;2022-09-12T11:12:27;23.00;99.90
10129;DHT22;5104;50.720;7.044;2022-09-12T11:15:06;23.10;99.90
10129;DHT22;5104;50.720;7.044;2022-09-12T11:17:48;23.10;99.90
10129;DHT22;5104;50.720;7.044;2022-09-12T11:20:45;22.90;99.90
10129;DHT22;5104;50.720;7.044;2022-09-12T11:23:29;23.00;1.00
10129;DHT22;5104;50.720;7.044;2022-09-12T11:26:03;23.10;99.90
10129;DHT22;5104;50.720;7.044;2022-09-12T11:28:40;23.10;99.90
10129;DHT22;5104;50.720;7.044;2022-09-12T11:31:51;23.20;99.90
10129;DHT22;5104;50.720;7.044;2022-09-12T11:34:28;23.30;99.90
10129;DHT22;5104;50.720;7.044;2022-09-12T11:37:13;23.40;99.90
10129;DHT22;5104;50.720;7.044;2022-09-12T11:39:46;23.60;1.00
10129;DHT22;5104;50.720;7.044;2022-09-12T11:42:19;23.50;11.60
10129;DHT22;5104;50.720;7.044;2022-09-12T11:44:52;23.40;99.90
10129;DHT22;5104;50.720;7.044;2022-09-12T11:47:22;23.60;97.10
10129;DHT22;5104;50.720;7.044;2022-09-12T11:49:52;23.80;80.00
10129;DHT22;5104;50.720;7.044;2022-09-12T11:52:22;24.00;76.20
10129;DHT22;5104;50.720;7.044;2022-09-12T11:54:56;24.10;1.00
10129;DHT22;5104;50.720;7.044;2022-09-12T11:57:30;24.20;1.00
10129;DHT22;5104;50.720;7.044;2022-09-12T12:00:04;24.20;1.00
10129;DHT22;5104;50.720;7.044;2022-09-12T12:02:37;24.00;1.00
10129;DHT22;5104;50.720;7.044;2022-09-12T12:05:16;24.00;1.00
10129;DHT22;5104;50.720;7.044;2022-09-12T12:07:54;24.10;1.00
10129;DHT22;5104;50.720;7.044;2022-09-12T12:10:28;24.20;1.00
10129;DHT22;5104;50.720;7.044;2022-09-12T12:12:59;24.20;1.00
10129;DHT22;5104;50.720;7.044;2022-09-12T12:15:26;24.10;1.00
10129;DHT22;5104;50.720;7.044;2022-09-12T12:18:06;24.10;1.00
10129;DHT22;5104;50.720;7.044;2022-09-12T12:20:35;24.20;1.00
10129;DHT22;5104;50.720;7.044;2022-09-12T12:23:02;24.20;1.00
10129;DHT22;5104;50.720;7.044;2022-09-12T12:25:49;24.10;1.00
10129;DHT22;5104;50.720;7.044;2022-09-12T12:31:17;24.40;1.00
10129;DHT22;5104;50.720;7.044;2022-09-12T12:33:59;24.50;1.00
10129;DHT22;5104;50.720;7.044;2022-09-12T12:36:40;24.50;1.00
10129;DHT22;5104;50.720;7.044;2022-09-12T12:48:14;24.50;1.00
10129;DHT22;5104;50.720;7.044;2022-09-12T12:50:42;24.60;1.00
10129;DHT22;5104;50.720;7.044;2022-09-12T12:53:17;24.50;1.00
10129;DHT22;5104;50.720;7.044;2022-09-12T12:55:47;24.40;1.00
10129;DHT22;5104;50.720;7.044;2022-09-12T12:58:27;24.30;1.00
10129;DHT22;5104;50.720;7.044;2022-09-12T13:01:11;24.50;1.00
10129;DHT22;5104;50.720;7.044;2022-09-12T13:03:41;24.60;1.00
10129;DHT22;5104;50.720;7.044;2022-09-12T13:06:27;24.70;1.00
10129;DHT22;5104;50.720;7.044;2022-09-12T13:08:59;24.80;1.00
10129;DHT22;5104;50.720;7.044;2022-09-12T13:11:29;24.80;1.00
10129;DHT22;5104;50.720;7.044;2022-09-12T13:13:59;24.80;1.00
10129;DHT22;5104;50.720;7.044;2022-09-12T13:16:34;24.70;1.00
10129;DHT22;5104;50.720;7.044;2022-09-12T13:19:03;24.60;1.00
10129;DHT22;5104;50.720;7.044;2022-09-12T13:21:31;24.60;1.00
10129;DHT22;5104;50.720;7.044;2022-09-12T13:24:00;24.80;1.00
10129;DHT22;5104;50.720;7.044;2022-09-12T13:26:32;24.90;1.00
10129;DHT22;5104;50.720;7.044;2022-09-12T13:29:18;24.90;1.00
10129;DHT22;5104;50.720;7.044;2022-09-12T13:31:47;25.00;1.00
10129;DHT22;5104;50.720;7.044;2022-09-12T13:34:18;25.10;1.00
10129;DHT22;5104;50.720;7.044;2022-09-12T13:37:14;25.00;1.00
10129;DHT22;5104;50.720;7.044;2022-09-12T13:39:52;25.00;1.00
10129;DHT22;5104;50.720;7.044;2022-09-12T13:42:37;24.90;1.00
10129;DHT22;5104;50.720;7.044;2022-09-12T13:45:10;24.90;1.00
10129;DHT22;5104;50.720;7.044;2022-09-12T13:47:40;24.90;1.00
10129;DHT22;5104;50.720;7.044;2022-09-12T13:50:15;25.00;1.00
10129;DHT22;5104;50.720;7.044;2022-09-12T13:52:46;25.10;1.00
10129;DHT22;5104;50.720;7.044;2022-09-12T13:55:26;25.20;1.00
10129;DHT22;5104;50.720;7.044;2022-09-12T13:57:56;25.20;1.00
10129;DHT22;5104;50.720;7.044;2022-09-12T14:00:24;25.10;1.00
10129;DHT22;5104;50.720;7.044;2022-09-12T14:02:53;25.10;1.00
10129;DHT22;5104;50.720;7.044;2022-09-12T14:05:43;25.10;1.00
10129;DHT22;5104;50.720;7.044;2022-09-12T14:08:11;25.20;1.00
10129;DHT22;5104;50.720;7.044;2022-09-12T14:10:43;25.30;1.00
10129;DHT22;5104;50.720;7.044;2022-09-12T14:13:16;25.30;1.00
10129;DHT22;5104;50.720;7.044;2022-09-12T14:15:45;25.20;1.00
10129;DHT22;5104;50.720;7.044;2022-09-12T14:18:22;25.40;1.00
10129;DHT22;5104;50.720;7.044;2022-09-12T14:20:49;25.50;1.00
10129;DHT22;5104;50.720;7.044;2022-09-12T14:23:25;25.40;1.00
10129;DHT22;5104;50.720;7.044;2022-09-12T14:25:55;25.40;1.00
10129;DHT22;5104;50.720;7.044;2022-09-12T14:28:24;25.20;1.00
10129;DHT22;5104;50.720;7.044;2022-09-12T14:31:00;25.30;1.00
10129;DHT22;5104;50.720;7.044;2022-09-12T14:33:28;25.20;1.00
10129;DHT22;5104;50.720;7.044;2022-09-12T14:36:08;25.20;1.00
10129;DHT22;5104;50.720;7.044;2022-09-12T14:38:40;25.30;1.00
10129;DHT22;5104;50.720;7.044;2022-09-12T14:41:09;25.20;1.00
10129;DHT22;5104;50.720;7.044;2022-09-12T14:43:41;25.40;1.00
10129;DHT22;5104;50.720;7.044;2022-09-12T14:46:16;25.40;99.90
10129;DHT22;5104;50.720;7.044;2022-09-12T14:48:47;25.40;99.90
10129;DHT22;5104;50.720;7.044;2022-09-12T14:51:20;25.50;99.90
10129;DHT22;5104;50.720;7.044;2022-09-12T14:53:48;25.50;99.90
10129;DHT22;5104;50.720;7.044;2022-09-12T14:56:20;25.60;99.90
10129;DHT22;5104;50.720;7.044;2022-09-12T14:58:47;25.60;99.90
10129;DHT22;5104;50.720;7.044;2022-09-12T15:01:23;25.60;99.90
10129;DHT22;5104;50.720;7.044;2022-09-12T15:03:52;25.70;99.90
10129;DHT22;5104;50.720;7.044;2022-09-12T15:06:22;25.70;99.90
10129;DHT22;5104;50.720;7.044;2022-09-12T15:08:52;25.60;99.90
10129;DHT22;5104;50.720;7.044;2022-09-12T15:11:21;25.60;99.90
10129;DHT22;5104;50.720;7.044;2022-09-12T15:13:48;25.60;99.90
10129;DHT22;5104;50.720;7.044;2022-09-12T15:16:15;25.60;99.90
10129;DHT22;5104;50.720;7.044;2022-09-12T15:18:42;25.50;99.90
10129;DHT22;5104;50.720;7.044;2022-09-12T15:21:12;25.30;99.90
10129;DHT22;5104;50.720;7.044;2022-09-12T15:23:43;25.20;99.90
10129;DHT22;5104;50.720;7.044;2022-09-12T15:26:12;25.20;99.90
10129;DHT22;5104;50.720;7.044;2022-09-12T15:28:40;25.30;99.90
10129;DHT22;5104;50.720;7.044;2022-09-12T15:31:14;25.30;99.90
10129;DHT22;5104;50.720;7.044;2022-09-12T15:33:45;25.40;99.90
10129;DHT22;5104;50.720;7.044;2022-09-12T15:36:15;25.50;99.90
10129;DHT22;5104;50.720;7.044;2022-09-12T15:38:43;25.70;99.90
10129;DHT22;5104;50.720;7.044;2022-09-12T15:41:12;25.80;99.90
10129;DHT22;5104;50.720;7.044;2022-09-12T15:43:42;25.70;99.90
10129;DHT22;5104;50.720;7.044;2022-09-12T15:46:10;25.70;99.90
10129;DHT22;5104;50.720;7.044;2022-09-12T15:48:37;25.70;99.90
10129;DHT22;5104;50.720;7.044;2022-09-12T15:51:05;25.60;99.90
10129;DHT22;5104;50.720;7.044;2022-09-12T15:53:32;25.70;99.90
10129;DHT22;5104;50.720;7.044;2022-09-12T15:55:59;25.70;99.90
10129;DHT22;5104;50.720;7.044;2022-09-12T15:58:26;25.50;99.90
10129;DHT22;5104;50.720;7.044;2022-09-12T16:00:54;25.50;99.90
10129;DHT22;5104;50.720;7.044;2022-09-12T16:03:23;25.50;99.90
10129;DHT22;5104;50.720;7.044;2022-09-12T16:05:54;25.30;99.90
10129;DHT22;5104;50.720;7.044;2022-09-12T16:08:21;25.30;99.90
10129;DHT22;5104;50.720;7.044;2022-09-12T16:10:52;25.40;99.90
10129;DHT22;5104;50.720;7.044;2022-09-12T16:13:20;25.60;99.90
10129;DHT22;5104;50.720;7.044;2022-09-12T16:15:47;25.50;99.90
10129;DHT22;5104;50.720;7.044;2022-09-12T16:18:15;25.50;99.40
10129;DHT22;5104;50.720;7.044;2022-09-12T16:20:42;25.70;99.90
10129;DHT22;5104;50.720;7.044;2022-09-12T16:23:10;25.50;99.90
10129;DHT22;5104;50.720;7.044;2022-09-12T16:25:37;25.50;99.90
10129;DHT22;5104;50.720;7.044;2022-09-12T16:28:04;25.30;99.90
10129;DHT22;5104;50.720;7.044;2022-09-12T16:30:31;25.40;99.90
10129;DHT22;5104;50.720;7.044;2022-09-12T16:32:58;25.50;99.90